createdAt,value
2023-05-08T00:01:31.295Z,3.80
2023-05-08T00:03:58.677Z,3.70
2023-05-08T00:06:27.712Z,3.90
2023-05-08T00:08:55.541Z,3.80
2023-05-08T00:11:22.619Z,3.40
2023-05-08T00:13:49.742Z,3.70
2023-05-08T00:16:16.856Z,3.50
2023-05-08T00:18:44.515Z,3.30
2023-05-08T00:21:11.473Z,2.90
2023-05-08T00:23:38.607Z,3.40
2023-05-08T00:26:05.574Z,3.10
2023-05-08T00:28:32.443Z,2.90
2023-05-08T00:31:02.534Z,2.70
2023-05-08T00:33:29.460Z,2.90
2023-05-08T00:36:03.640Z,2.50
2023-05-08T00:38:34.411Z,2.60
2023-05-08T00:41:01.863Z,2.60
2023-05-08T00:43:29.261Z,2.70
2023-05-08T00:45:56.874Z,2.50
2023-05-08T00:48:24.061Z,2.60
2023-05-08T00:50:52.668Z,2.70
2023-05-08T00:53:19.867Z,2.70
2023-05-08T00:55:46.884Z,2.90
2023-05-08T00:58:13.802Z,3.00
2023-05-08T01:00:42.192Z,2.90
2023-05-08T01:03:09.667Z,2.70
2023-05-08T01:05:36.850Z,2.70
2023-05-08T01:08:04.311Z,2.80
2023-05-08T01:10:53.826Z,2.60
2023-05-08T01:13:37.821Z,2.50
2023-05-08T01:16:13.347Z,2.50
2023-05-08T01:18:44.840Z,2.60
2023-05-08T01:21:21.498Z,2.60
2023-05-08T01:24:13.284Z,2.70
2023-05-08T01:27:09.458Z,2.00
2023-05-08T01:30:07.454Z,2.20
2023-05-08T01:32:39.440Z,2.50
2023-05-08T01:35:33.181Z,2.30
2023-05-08T01:38:03.573Z,2.40
2023-05-08T01:40:45.772Z,2.40
2023-05-08T01:44:06.770Z,2.40
2023-05-08T01:46:34.440Z,2.00
2023-05-08T01:49:12.717Z,2.30
2023-05-08T01:51:45.270Z,2.40
2023-05-08T01:54:16.638Z,2.20
2023-05-08T01:56:44.903Z,2.60
2023-05-08T01:59:14.385Z,2.20
2023-05-08T02:01:43.074Z,2.20
2023-05-08T02:04:10.248Z,2.50
2023-05-08T02:06:37.233Z,2.40
2023-05-08T02:09:04.221Z,2.40
2023-05-08T02:11:32.106Z,2.10
2023-05-08T02:13:59.133Z,2.40
2023-05-08T02:16:26.173Z,2.60
2023-05-08T02:18:54.451Z,2.40
2023-05-08T02:21:21.342Z,2.20
2023-05-08T02:23:48.261Z,2.60
2023-05-08T02:26:15.815Z,2.10
2023-05-08T02:28:42.743Z,2.30
2023-05-08T02:31:10.420Z,2.20
2023-05-08T02:33:38.565Z,2.30
2023-05-08T02:36:05.853Z,2.20
2023-05-08T02:38:33.913Z,2.30
2023-05-08T02:41:02.000Z,2.40
2023-05-08T02:43:29.105Z,2.40
2023-05-08T02:45:58.942Z,2.30
2023-05-08T02:48:37.098Z,2.60
2023-05-08T02:51:16.496Z,2.40
2023-05-08T02:53:47.299Z,2.30
2023-05-08T02:56:36.800Z,2.30
2023-05-08T02:59:21.469Z,2.50
2023-05-08T03:02:22.429Z,2.80
2023-05-08T03:04:55.695Z,1.90
2023-05-08T03:07:24.614Z,2.50
2023-05-08T03:09:55.755Z,2.40
2023-05-08T03:12:24.929Z,2.40
2023-05-08T03:15:01.005Z,2.10
2023-05-08T03:17:28.884Z,2.30
2023-05-08T03:19:57.828Z,2.40
2023-05-08T03:22:25.359Z,2.10
2023-05-08T03:24:52.921Z,2.30
2023-05-08T03:27:20.505Z,2.00
2023-05-08T03:29:47.979Z,2.50
2023-05-08T03:32:15.035Z,2.50
2023-05-08T03:34:42.273Z,2.30
2023-05-08T03:37:09.199Z,2.40
2023-05-08T03:39:36.302Z,2.50
2023-05-08T03:42:03.522Z,2.20
2023-05-08T03:44:30.525Z,2.40
2023-05-08T03:46:58.645Z,2.40
2023-05-08T03:49:26.819Z,2.40
2023-05-08T03:51:54.913Z,2.10
2023-05-08T03:54:25.507Z,2.30
2023-05-08T03:56:54.149Z,2.00
2023-05-08T04:00:03.607Z,2.40
2023-05-08T04:02:54.441Z,2.00
2023-05-08T04:05:48.345Z,2.10
2023-05-08T04:08:30.361Z,2.10
2023-05-08T04:11:21.233Z,2.10
2023-05-08T04:13:50.637Z,2.40
2023-05-08T04:16:22.077Z,2.30
2023-05-08T04:18:50.369Z,2.40
2023-05-08T04:21:22.901Z,1.80
2023-05-08T04:23:50.952Z,2.10
2023-05-08T04:26:18.511Z,2.30
2023-05-08T04:28:46.996Z,2.10
2023-05-08T04:31:16.070Z,1.90
2023-05-08T04:33:46.832Z,2.00
2023-05-08T04:36:14.361Z,1.80
2023-05-08T04:38:42.634Z,2.20
2023-05-08T04:41:10.025Z,2.20
2023-05-08T04:43:38.223Z,2.10
2023-05-08T04:46:06.264Z,1.70
2023-05-08T04:48:34.058Z,2.00
2023-05-08T04:51:01.453Z,2.10
2023-05-08T04:53:28.581Z,2.30
2023-05-08T04:55:55.515Z,1.90
2023-05-08T04:58:22.646Z,1.70
2023-05-08T05:00:50.778Z,2.00
2023-05-08T05:03:18.060Z,1.70
2023-05-08T05:05:45.693Z,1.50
2023-05-08T05:08:12.832Z,1.60
2023-05-08T05:10:40.812Z,2.10
2023-05-08T05:13:08.141Z,2.00
2023-05-08T05:15:35.558Z,1.90
2023-05-08T05:18:02.732Z,2.00
2023-05-08T05:20:32.397Z,2.00
2023-05-08T05:22:59.308Z,2.00
2023-05-08T05:25:26.182Z,2.30
2023-05-08T05:27:53.255Z,2.10
2023-05-08T05:30:20.396Z,2.10
2023-05-08T05:32:47.782Z,1.80
2023-05-08T05:35:15.384Z,2.10
2023-05-08T05:37:43.240Z,2.20
2023-05-08T05:40:13.479Z,2.10
2023-05-08T05:42:41.249Z,1.80
2023-05-08T05:45:08.988Z,2.00
2023-05-08T05:47:35.952Z,2.00
2023-05-08T05:50:04.794Z,2.20
2023-05-08T05:52:33.358Z,1.90
2023-05-08T05:55:00.603Z,1.80
2023-05-08T05:57:27.852Z,1.80
2023-05-08T05:59:55.071Z,2.00
2023-05-08T06:02:22.729Z,1.80
2023-05-08T06:04:52.082Z,2.10
2023-05-08T06:07:20.923Z,1.90
2023-05-08T06:09:48.162Z,1.90
2023-05-08T06:12:15.097Z,1.60
2023-05-08T06:14:42.000Z,1.80
2023-05-08T06:17:09.099Z,1.70
2023-05-08T06:19:36.887Z,1.50
2023-05-08T06:22:03.689Z,2.00
2023-05-08T06:24:30.672Z,1.70
2023-05-08T06:26:57.522Z,1.40
2023-05-08T06:29:24.582Z,1.70
2023-05-08T06:31:51.460Z,1.80
2023-05-08T06:34:18.364Z,1.70
2023-05-08T06:36:45.542Z,1.70
2023-05-08T06:39:12.746Z,1.90
2023-05-08T06:41:39.694Z,1.70
2023-05-08T06:44:06.501Z,1.90
2023-05-08T06:46:33.698Z,1.70
2023-05-08T06:49:00.949Z,1.90
2023-05-08T06:51:27.811Z,1.60
2023-05-08T06:53:54.695Z,1.40
2023-05-08T06:56:22.988Z,2.00
2023-05-08T06:58:57.057Z,1.90
2023-05-08T07:01:31.756Z,2.10
2023-05-08T07:03:58.993Z,1.60
2023-05-08T07:06:25.769Z,1.90
2023-05-08T07:08:52.716Z,1.70
2023-05-08T07:11:19.524Z,1.80
2023-05-08T07:13:48.425Z,2.00
2023-05-08T07:16:16.400Z,1.80
2023-05-08T07:18:43.898Z,1.70
2023-05-08T07:21:11.056Z,1.80
2023-05-08T07:23:37.972Z,1.80
2023-05-08T07:26:04.854Z,1.80
2023-05-08T07:28:31.735Z,1.50
2023-05-08T07:30:58.532Z,1.70
2023-05-08T07:33:25.502Z,1.70
2023-05-08T07:35:52.883Z,2.60
2023-05-08T07:38:19.624Z,1.80
2023-05-08T07:40:46.407Z,1.30
2023-05-08T07:43:15.048Z,2.10
2023-05-08T07:45:41.830Z,1.30
2023-05-08T07:48:09.049Z,1.40
2023-05-08T07:50:36.533Z,1.50
2023-05-08T07:53:03.360Z,1.50
2023-05-08T07:55:30.247Z,3.20
2023-05-08T07:57:57.105Z,1.70
2023-05-08T08:00:24.108Z,1.60
2023-05-08T08:02:51.045Z,3.40
2023-05-08T08:05:18.036Z,2.60
2023-05-08T08:07:45.106Z,1.30
2023-05-08T08:10:12.564Z,1.40
2023-05-08T08:12:39.491Z,1.60
2023-05-08T08:15:06.793Z,1.30
2023-05-08T08:17:33.636Z,1.40
2023-05-08T08:20:00.866Z,1.30
2023-05-08T08:22:27.667Z,1.50
2023-05-08T08:24:57.825Z,1.60
2023-05-08T08:27:24.661Z,1.60
2023-05-08T08:29:58.531Z,1.20
2023-05-08T08:32:31.902Z,1.50
2023-05-08T08:34:58.989Z,5.70
2023-05-08T08:37:26.362Z,1.40
2023-05-08T08:39:53.756Z,1.50
2023-05-08T08:42:20.566Z,1.40
2023-05-08T08:44:47.479Z,1.60
2023-05-08T08:47:14.571Z,1.70
2023-05-08T08:49:43.757Z,1.60
2023-05-08T08:52:27.028Z,1.90
2023-05-08T08:54:53.998Z,1.60
2023-05-08T08:57:20.780Z,1.70
2023-05-08T08:59:47.568Z,1.50
2023-05-08T09:02:18.278Z,1.30
2023-05-08T09:04:45.462Z,1.60
2023-05-08T09:07:12.286Z,1.60
2023-05-08T09:09:41.031Z,1.50
2023-05-08T09:12:08.308Z,1.30
2023-05-08T09:14:35.628Z,1.60
2023-05-08T09:17:02.622Z,1.50
2023-05-08T09:19:29.719Z,1.80
2023-05-08T09:21:59.327Z,1.70
2023-05-08T09:24:29.127Z,1.70
2023-05-08T09:26:57.565Z,1.50
2023-05-08T09:29:24.400Z,1.40
2023-05-08T09:31:52.588Z,2.10
2023-05-08T09:34:28.109Z,1.50
2023-05-08T09:36:55.875Z,1.40
2023-05-08T09:39:24.634Z,1.80
2023-05-08T09:41:58.937Z,1.70
2023-05-08T09:44:25.709Z,1.30
2023-05-08T09:46:53.939Z,1.40
2023-05-08T09:49:20.763Z,1.30
2023-05-08T09:51:54.081Z,1.30
2023-05-08T09:54:20.990Z,1.50
2023-05-08T09:56:47.824Z,1.50
2023-05-08T09:59:28.457Z,1.40
2023-05-08T10:01:56.010Z,1.30
2023-05-08T10:09:12.728Z,1.50
2023-05-08T10:11:52.093Z,1.50
2023-05-08T10:14:19.767Z,1.30
2023-05-08T10:16:49.259Z,1.30
2023-05-08T10:19:17.571Z,1.30
2023-05-08T10:21:49.454Z,1.30
2023-05-08T10:24:17.986Z,1.30
2023-05-08T10:27:17.274Z,1.30
2023-05-08T10:29:52.269Z,1.50
2023-05-08T10:32:23.584Z,1.30
2023-05-08T10:34:53.193Z,1.10
2023-05-08T10:37:20.188Z,1.20
2023-05-08T10:39:47.141Z,1.50
2023-05-08T10:42:14.398Z,1.20
2023-05-08T10:44:41.374Z,1.30
2023-05-08T10:47:15.177Z,1.60
2023-05-08T10:49:49.831Z,1.40
2023-05-08T10:52:21.207Z,1.30
2023-05-08T10:54:54.036Z,1.50
2023-05-08T10:57:20.948Z,1.10
2023-05-08T10:59:48.122Z,1.30
2023-05-08T11:02:15.772Z,1.30
2023-05-08T11:04:43.945Z,1.30
2023-05-08T11:07:11.640Z,1.10
2023-05-08T11:09:41.804Z,1.20
2023-05-08T11:12:27.319Z,1.40
2023-05-08T11:15:03.122Z,1.40
2023-05-08T11:17:30.059Z,1.20
2023-05-08T11:19:58.798Z,1.20
2023-05-08T11:22:28.532Z,1.40
2023-05-08T11:24:59.409Z,1.50
2023-05-08T11:27:32.715Z,1.40
2023-05-08T11:32:57.201Z,1.40
2023-05-08T11:35:49.040Z,1.40
2023-05-08T11:38:27.967Z,1.40
2023-05-08T11:41:00.868Z,1.30
2023-05-08T11:43:33.897Z,1.90
2023-05-08T11:46:04.142Z,1.60
2023-05-08T11:48:31.793Z,1.80
2023-05-08T11:51:02.368Z,1.50
2023-05-08T11:53:30.568Z,1.40
2023-05-08T11:55:57.605Z,1.50
2023-05-08T11:58:24.678Z,1.70
2023-05-08T12:00:51.972Z,1.50
2023-05-08T12:03:20.384Z,1.40
2023-05-08T12:05:47.662Z,1.30
2023-05-08T12:08:14.876Z,1.40
2023-05-08T12:10:53.944Z,1.40
2023-05-08T12:13:30.332Z,1.20
2023-05-08T12:15:58.919Z,1.60
2023-05-08T12:18:26.849Z,1.30
2023-05-08T12:20:54.275Z,1.30
2023-05-08T12:23:21.219Z,1.30
2023-05-08T12:25:48.172Z,1.50
2023-05-08T12:28:15.086Z,1.40
2023-05-08T12:30:41.926Z,1.40
2023-05-08T12:33:08.866Z,1.40
2023-05-08T12:35:35.824Z,1.40
2023-05-08T12:38:03.593Z,1.30
2023-05-08T12:40:32.442Z,1.30
2023-05-08T12:43:03.514Z,1.30
2023-05-08T12:45:33.752Z,1.20
2023-05-08T12:48:04.864Z,1.40
2023-05-08T12:50:35.816Z,1.40
2023-05-08T12:53:06.786Z,1.20
2023-05-08T12:55:35.365Z,1.40
2023-05-08T12:58:15.195Z,1.70
2023-05-08T13:00:46.749Z,1.60
2023-05-08T13:03:21.486Z,1.30
2023-05-08T13:05:48.520Z,1.30
2023-05-08T13:08:15.637Z,1.30
2023-05-08T13:10:52.966Z,1.70
2023-05-08T13:13:24.999Z,1.60
2023-05-08T13:15:53.095Z,1.30
2023-05-08T13:18:21.891Z,1.40
2023-05-08T13:20:48.966Z,1.40
2023-05-08T13:23:16.004Z,1.40
2023-05-08T13:25:43.066Z,1.10
2023-05-08T13:28:10.257Z,1.20
2023-05-08T13:30:37.917Z,1.40
2023-05-08T13:33:05.073Z,1.40
2023-05-08T13:35:32.873Z,1.50
2023-05-08T13:38:01.769Z,1.20
2023-05-08T13:40:31.613Z,1.40
2023-05-08T13:43:00.804Z,1.20
2023-05-08T13:45:30.819Z,1.20
2023-05-08T13:48:00.914Z,1.30
2023-05-08T13:50:30.366Z,1.30
2023-05-08T13:53:00.866Z,1.40
2023-05-08T13:55:29.929Z,1.00
2023-05-08T13:57:59.784Z,1.30
2023-05-08T14:00:30.174Z,1.20
2023-05-08T14:02:59.927Z,1.10
2023-05-08T14:05:28.900Z,1.20
2023-05-08T14:07:58.254Z,1.10
2023-05-08T14:10:27.746Z,1.10
2023-05-08T14:12:57.801Z,1.10
2023-05-08T14:15:36.563Z,1.20
2023-05-08T14:18:07.011Z,1.10
2023-05-08T14:20:37.203Z,1.30
2023-05-08T14:23:06.446Z,1.20
2023-05-08T14:25:35.846Z,1.30
2023-05-08T14:28:06.880Z,1.30
2023-05-08T14:35:20.870Z,1.30
2023-05-08T14:37:50.879Z,1.70
2023-05-08T14:46:31.388Z,1.30
2023-05-08T14:48:58.655Z,1.40
2023-05-08T14:51:25.877Z,1.40
2023-05-08T14:53:52.869Z,1.50
2023-05-08T14:56:24.495Z,1.50
2023-05-08T14:58:52.144Z,1.40
2023-05-08T15:01:19.133Z,1.50
2023-05-08T15:03:52.996Z,1.40
2023-05-08T15:06:22.086Z,1.40
2023-05-08T15:08:49.235Z,1.60
2023-05-08T15:11:16.239Z,1.70
2023-05-08T15:13:43.236Z,1.40
2023-05-08T15:16:10.453Z,1.40
2023-05-08T15:18:37.334Z,1.30
2023-05-08T15:21:04.756Z,1.50
2023-05-08T15:23:31.874Z,1.30
2023-05-08T15:25:58.703Z,1.40
2023-05-08T15:28:25.755Z,1.70
2023-05-08T15:30:52.690Z,1.40
2023-05-08T15:33:20.030Z,1.50
2023-05-08T15:35:47.179Z,1.60
2023-05-08T15:38:14.125Z,1.40
2023-05-08T15:40:41.179Z,1.90
2023-05-08T15:43:08.177Z,1.60
2023-05-08T15:45:35.087Z,1.90
2023-05-08T15:48:02.249Z,1.80
2023-05-08T15:50:29.261Z,2.00
2023-05-08T15:52:56.321Z,2.00
2023-05-08T15:55:23.484Z,2.20
2023-05-08T15:57:50.457Z,2.00
2023-05-08T16:00:17.960Z,2.00
2023-05-08T16:02:44.945Z,2.30
2023-05-08T16:05:12.096Z,2.00
2023-05-08T16:07:39.361Z,2.20
2023-05-08T16:10:07.440Z,1.80
2023-05-08T16:12:34.650Z,2.00
2023-05-08T16:15:01.573Z,2.00
2023-05-08T16:17:28.672Z,2.30
2023-05-08T16:19:55.698Z,2.00
2023-05-08T16:22:23.322Z,2.30
2023-05-08T16:24:52.708Z,2.10
2023-05-08T16:27:19.687Z,2.00
2023-05-08T16:29:46.530Z,1.90
2023-05-08T16:32:13.485Z,2.00
2023-05-08T16:34:40.245Z,1.80
2023-05-08T16:37:07.112Z,2.40
2023-05-08T16:39:34.774Z,1.80
2023-05-08T16:42:01.950Z,2.90
2023-05-08T16:44:29.230Z,2.20
2023-05-08T16:46:56.284Z,2.00
2023-05-08T16:49:23.168Z,2.30
2023-05-08T16:51:50.396Z,1.90
2023-05-08T16:54:17.316Z,2.10
2023-05-08T16:56:44.265Z,1.90
2023-05-08T16:59:11.381Z,1.90
2023-05-08T17:01:38.397Z,1.70
2023-05-08T17:04:05.454Z,1.90
2023-05-08T17:06:33.181Z,2.10
2023-05-08T17:09:00.021Z,1.90
2023-05-08T17:11:26.877Z,2.20
2023-05-08T17:13:53.873Z,2.20
2023-05-08T17:16:20.842Z,3.60
2023-05-08T17:18:47.996Z,4.60
2023-05-08T17:21:14.869Z,4.10
2023-05-08T17:23:41.938Z,4.40
2023-05-08T17:26:09.455Z,4.20
2023-05-08T17:28:37.218Z,4.40
2023-05-08T17:31:04.061Z,3.90
2023-05-08T17:33:30.958Z,2.30
2023-05-08T17:35:57.724Z,2.50
2023-05-08T17:38:24.544Z,1.80
2023-05-08T17:40:51.639Z,1.70
2023-05-08T17:43:20.510Z,25.60
2023-05-08T17:45:47.728Z,232.30
2023-05-08T17:48:14.652Z,215.50
2023-05-08T17:50:43.665Z,269.70
2023-05-08T17:53:10.578Z,247.90
2023-05-08T17:55:37.622Z,305.50
2023-05-08T17:58:04.555Z,154.00
2023-05-08T18:00:31.596Z,104.50
2023-05-08T18:02:58.697Z,108.20
2023-05-08T18:05:25.751Z,79.80
2023-05-08T18:07:54.010Z,224.50
2023-05-08T18:10:21.325Z,129.90
2023-05-08T18:12:48.226Z,68.40
2023-05-08T18:15:15.033Z,57.50
2023-05-08T18:17:42.330Z,38.40
2023-05-08T18:20:10.009Z,41.50
2023-05-08T18:22:36.883Z,24.60
2023-05-08T18:25:04.016Z,30.30
2023-05-08T18:27:33.481Z,15.50
2023-05-08T18:30:00.523Z,11.30
2023-05-08T18:32:27.971Z,9.30
2023-05-08T18:34:55.774Z,9.60
2023-05-08T18:37:23.312Z,6.10
2023-05-08T18:39:50.424Z,6.30
2023-05-08T18:42:17.308Z,4.50
2023-05-08T18:44:44.427Z,3.20
2023-05-08T18:47:11.369Z,3.50
2023-05-08T18:49:38.381Z,3.10
2023-05-08T18:52:05.538Z,2.60
2023-05-08T18:54:32.338Z,2.20
2023-05-08T18:56:59.234Z,2.40
2023-05-08T18:59:26.279Z,2.20
2023-05-08T19:01:53.133Z,2.10
2023-05-08T19:04:20.263Z,2.20
2023-05-08T19:06:47.207Z,1.80
2023-05-08T19:09:14.161Z,1.80
2023-05-08T19:11:41.101Z,1.80
2023-05-08T19:14:07.980Z,1.80
2023-05-08T19:16:34.820Z,2.00
2023-05-08T19:19:01.733Z,2.00
2023-05-08T19:21:29.390Z,2.10
2023-05-08T19:23:56.195Z,2.00
2023-05-08T19:26:23.501Z,2.00
2023-05-08T19:28:50.370Z,2.00
2023-05-08T19:31:17.255Z,1.70
2023-05-08T19:33:44.424Z,2.00
2023-05-08T19:36:11.369Z,2.00
2023-05-08T19:38:40.128Z,2.10
2023-05-08T19:41:07.347Z,2.20
2023-05-08T19:43:34.200Z,2.10
2023-05-08T19:46:01.567Z,2.20
2023-05-08T19:48:28.554Z,2.20
2023-05-08T19:50:55.599Z,2.20
2023-05-08T19:53:23.574Z,2.50
2023-05-08T19:55:50.501Z,2.30
2023-05-08T19:58:18.055Z,2.60
2023-05-08T20:00:50.872Z,2.60
2023-05-08T20:03:18.358Z,3.20
2023-05-08T20:05:45.409Z,2.50
2023-05-08T20:08:12.211Z,2.80
2023-05-08T20:10:39.150Z,2.70
2023-05-08T20:13:06.037Z,2.50
2023-05-08T20:15:32.989Z,2.20
2023-05-08T20:17:59.911Z,2.50
2023-05-08T20:20:29.298Z,2.20
2023-05-08T20:22:56.639Z,2.30
2023-05-08T20:25:23.745Z,2.10
2023-05-08T20:27:50.589Z,2.00
2023-05-08T20:30:17.504Z,2.30
2023-05-08T20:32:44.355Z,1.90
2023-05-08T20:35:11.521Z,1.90
2023-05-08T20:37:43.855Z,2.10
2023-05-08T20:40:11.674Z,2.40
2023-05-08T20:42:40.802Z,2.50
2023-05-08T20:45:11.530Z,2.30
2023-05-08T20:47:38.442Z,2.50
2023-05-08T20:50:06.460Z,2.20
2023-05-08T20:52:34.600Z,2.60
2023-05-08T20:55:03.139Z,2.80
2023-05-08T20:57:29.981Z,2.40
2023-05-08T20:59:56.838Z,2.70
2023-05-08T21:02:23.896Z,2.50
2023-05-08T21:04:50.797Z,2.70
2023-05-08T21:07:17.842Z,2.80
2023-05-08T21:09:44.705Z,3.00
2023-05-08T21:12:11.648Z,2.90
2023-05-08T21:14:38.590Z,2.60
2023-05-08T21:17:05.411Z,2.70
2023-05-08T21:19:32.356Z,2.70
2023-05-08T21:21:59.321Z,2.40
2023-05-08T21:24:26.452Z,2.40
2023-05-08T21:26:53.607Z,2.50
2023-05-08T21:29:20.653Z,2.50
2023-05-08T21:31:47.599Z,2.60
2023-05-08T21:34:15.675Z,2.40
2023-05-08T21:36:42.490Z,2.40
2023-05-08T21:39:09.590Z,2.30
2023-05-08T21:41:36.663Z,2.10
2023-05-08T21:44:03.524Z,2.50
2023-05-08T21:46:30.874Z,2.10
2023-05-08T21:48:58.064Z,2.20
2023-05-08T21:51:25.728Z,2.00
2023-05-08T21:53:52.737Z,2.10
2023-05-08T21:56:19.875Z,2.40
2023-05-08T21:58:46.792Z,2.20
2023-05-08T22:01:17.728Z,2.10
2023-05-08T22:03:45.526Z,2.10
2023-05-08T22:06:12.654Z,2.20
2023-05-08T22:08:39.478Z,2.00
2023-05-08T22:11:06.291Z,2.20
2023-05-08T22:13:34.637Z,2.10
2023-05-08T22:16:01.446Z,2.20
2023-05-08T22:18:28.474Z,2.30
2023-05-08T22:20:57.012Z,1.90
2023-05-08T22:23:23.908Z,2.10
2023-05-08T22:25:51.429Z,2.00
2023-05-08T22:28:18.292Z,2.40
2023-05-08T22:30:45.275Z,2.10
2023-05-08T22:33:12.285Z,2.30
2023-05-08T22:35:39.166Z,2.10
2023-05-08T22:38:06.150Z,2.20
2023-05-08T22:40:33.536Z,2.30
2023-05-08T22:43:00.794Z,1.80
2023-05-08T22:45:27.767Z,2.20
2023-05-08T22:47:57.285Z,2.20
2023-05-08T22:50:24.235Z,2.10
2023-05-08T22:52:51.040Z,2.20
2023-05-08T22:55:17.990Z,2.00
2023-05-08T22:57:45.927Z,2.10
2023-05-08T23:00:13.725Z,2.10
2023-05-08T23:02:41.771Z,2.00
2023-05-08T23:05:09.556Z,2.10
2023-05-08T23:07:38.370Z,2.10
2023-05-08T23:10:06.830Z,2.00
2023-05-08T23:12:33.857Z,2.20
2023-05-08T23:15:01.936Z,1.90
2023-05-08T23:17:28.992Z,2.30
2023-05-08T23:19:56.907Z,2.00
2023-05-08T23:22:24.779Z,2.10
2023-05-08T23:24:52.250Z,1.90
2023-05-08T23:27:19.919Z,2.20
2023-05-08T23:29:47.716Z,2.20
2023-05-08T23:32:16.074Z,2.10
2023-05-08T23:34:43.329Z,2.30
2023-05-08T23:37:11.706Z,2.00
2023-05-08T23:39:41.440Z,2.30
2023-05-08T23:42:09.416Z,2.00
2023-05-08T23:44:36.443Z,2.00
2023-05-08T23:47:03.564Z,2.50
2023-05-08T23:49:30.689Z,2.00
2023-05-08T23:51:58.810Z,2.20
2023-05-08T23:54:25.729Z,2.00
2023-05-08T23:56:52.564Z,2.30
2023-05-08T23:59:19.557Z,2.80
